This is the latest recevied weather packets stored in our database for station/object KG5MMT-15. If no packets are shown the sender has not sent any weather packets the latest 10 day(s).
| Time | Temp. | Humidity | Pressure | Rain* | Wind** | Luminosity | Snow |
|---|---|---|---|---|---|---|---|
| 1777883240 | 13.33° C | 48% | 0 hPa | 0 mm | - | - | - |
| 1777882940 | 13.33° C | 48% | 0 hPa | 0 mm | - | - | - |
| 1777882640 | 13.89° C | 48% | 0 hPa | 0 mm | - | - | - |
| 1777882340 | 13.89° C | 48% | 0 hPa | 0 mm | - | - | - |
| 1777882040 | 13.89° C | 47% | 0 hPa | 0 mm | - | - | - |
| 1777881740 | 13.89° C | 48% | 0 hPa | 0 mm | - | - | - |
| 1777881440 | 13.33° C | 47% | 0 hPa | 0 mm | - | - | - |
| 1777881140 | 13.89° C | 47% | 0 hPa | 0 mm | - | - | - |
| 1777880240 | 11.67° C | 52% | 0 hPa | 0 mm | - | - | - |
| 1777879940 | 10.56° C | 58% | 0 hPa | 0 mm | - | - | - |
| 1777879640 | 10.56° C | 57% | 0 hPa | 0 mm | - | - | - |
| 1777879340 | 11.11° C | 55% | 0 hPa | 0 mm | - | - | - |
| 1777879040 | 10.56° C | 58% | 0 hPa | 0 mm | - | - | - |
| 1777878740 | 10° C | 61% | 0 hPa | 0 mm | - | - | - |
| 1777878440 | 9.44° C | 61% | 0 hPa | 0 mm | - | - | - |
| 1777878140 | 9.44° C | 62% | 0 hPa | 0 mm | - | - | - |
| 1777877840 | 9.44° C | 61% | 0 hPa | 0 mm | - | - | - |
| 1777877540 | 9.44° C | 61% | 0 hPa | 0 mm | - | - | - |
| 1777877240 | 9.44° C | 60% | 0 hPa | 0 mm | - | - | - |
| 1777876940 | 9.44° C | 60% | 0 hPa | 0 mm | - | - | - |
| 1777876640 | 9.44° C | 60% | 0 hPa | 0 mm | - | - | - |
| 1777876340 | 8.89° C | 62% | 0 hPa | 0 mm | - | - | - |
| 1777876040 | 9.44° C | 60% | 0 hPa | 0 mm | - | - | - |
| 1777875740 | 8.89° C | 62% | 0 hPa | 0 mm | - | - | - |
| 1777875440 | 8.89° C | 62% | 0 hPa | 0 mm | - | - | - |
* Rain latest hour (hover to see other rain measurements)
** Current wind speed in m/s (hover to see current wind gust speed)